Terminal Aerodrome Forecast
Issued by NWS Wilmington, OH

Current Version | Previous Version | Graphics & Text | Print | Product List | Glossary On
Versions: 1 2 3 4 5 6 7 8 9 10 11 12 13 14 15 16 17 18 19 20 21 22 23 24 25 26
000
FTUS41 KILN 252100 AAA
TAFCVG
TAF AMD
KCVG 252102Z 2521/2624 22005KT P6SM BKN150
      TEMPO 2523/2524 18012G17KT -RA SCT030 OVC100
     FM260000 20004KT P6SM BKN100
     FM261300 22009KT P6SM VCTS BKN050CB BKN100=

USA.gov is the U.S. government's official web portal to all federal, state and local government web resources and services.